< < Back
Terminal Aerodrome Forecast


Current Version              Previous Versions:   1  2  3  4  5  6  7  8  9  

Terminal Aerodrome Forecast

089
FTUS42 KGSP 270917 AAB
TAFAVL
TAF AMD
KAVL 270917Z 2709/2806 00000KT 3SM BR SCT002 BKN060
      TEMPO 2709/2712 1/4SM FG BKN002 OVC030
     FM271400 VRB03KT P6SM FEW020 SCT060
     FM271700 18006KT P6SM VCSH BKN050 PROB30 2718/2723 4SM -TSRA
      OVC035CB
     FM280200 17003KT P6SM SCT050 BKN200=

Latest METAR

721
SAUS70 KWBC 271200
MTRAVL
METAR KAVL 271154Z 13003KT 8SM FEW002 16/14 A3019 RMK AO2 SLP202
T01560144 10167 20150 50009


USA.gov is the U.S. government's official web portal to all federal, state and local government web resources and services.